createdAt,value
2023-04-28T00:00:06.993Z,24.80
2023-04-28T00:02:35.537Z,24.90
2023-04-28T00:05:04.696Z,24.80
2023-04-28T00:07:33.184Z,24.80
2023-04-28T00:10:01.744Z,24.80
2023-04-28T00:12:30.165Z,24.80
2023-04-28T00:14:58.544Z,24.80
2023-04-28T00:17:27.167Z,24.80
2023-04-28T00:19:55.651Z,24.90
2023-04-28T00:22:24.172Z,25.00
2023-04-28T00:24:52.643Z,24.90
2023-04-28T00:27:21.610Z,24.90
2023-04-28T00:29:50.019Z,24.90
2023-04-28T00:32:18.435Z,24.80
2023-04-28T00:34:46.917Z,24.80
2023-04-28T00:37:15.294Z,24.80
2023-04-28T00:39:47.860Z,24.90
2023-04-28T00:42:17.191Z,24.90
2023-04-28T00:44:45.579Z,24.80
2023-04-28T00:47:14.543Z,24.90
2023-04-28T00:49:42.929Z,24.80
2023-04-28T00:52:11.466Z,24.80
2023-04-28T00:54:39.923Z,24.80
2023-04-28T00:57:09.424Z,24.80
2023-04-28T00:59:38.052Z,24.90
2023-04-28T01:02:08.422Z,25.00
2023-04-28T01:04:38.310Z,24.90
2023-04-28T01:07:07.030Z,25.00
2023-04-28T01:09:35.423Z,25.10
2023-04-28T01:12:03.905Z,25.00
2023-04-28T01:14:33.413Z,24.80
2023-04-28T01:17:02.212Z,24.80
2023-04-28T01:19:31.013Z,24.80
2023-04-28T01:21:59.381Z,24.90
2023-04-28T01:24:27.760Z,24.90
2023-04-28T01:26:56.258Z,24.90
2023-04-28T01:29:24.726Z,24.90
2023-04-28T01:31:53.145Z,24.70
2023-04-28T01:34:21.676Z,24.60
2023-04-28T01:36:50.088Z,24.70
2023-04-28T01:39:18.847Z,24.70
2023-04-28T01:41:47.248Z,24.60
2023-04-28T01:44:16.068Z,24.40
2023-04-28T01:46:44.687Z,24.40
2023-04-28T01:49:13.140Z,24.20
2023-04-28T01:51:42.528Z,24.20
2023-04-28T01:54:11.087Z,24.10
2023-04-28T01:56:39.513Z,24.10
2023-04-28T01:59:08.017Z,24.10
2023-04-28T02:01:36.497Z,23.90
2023-04-28T02:04:05.045Z,23.90
2023-04-28T02:06:36.031Z,23.90
2023-04-28T02:09:04.457Z,23.80
2023-04-28T02:11:32.838Z,23.80
2023-04-28T02:14:01.220Z,23.70
2023-04-28T02:16:29.661Z,23.70
2023-04-28T02:18:58.075Z,23.50
2023-04-28T02:21:27.292Z,23.50
2023-04-28T02:23:55.803Z,23.40
2023-04-28T02:26:25.201Z,23.40
2023-04-28T02:28:53.951Z,23.20
2023-04-28T02:31:22.427Z,23.20
2023-04-28T02:33:50.902Z,23.10
2023-04-28T02:36:19.397Z,23.00
2023-04-28T02:38:47.790Z,23.00
2023-04-28T02:41:16.445Z,22.80
2023-04-28T02:43:44.827Z,22.80
2023-04-28T02:46:13.340Z,22.70
2023-04-28T02:48:42.201Z,22.60
2023-04-28T02:51:10.579Z,22.50
2023-04-28T02:53:38.955Z,22.40
2023-04-28T02:56:07.560Z,22.40
2023-04-28T02:58:36.033Z,22.20
2023-04-28T03:01:04.457Z,22.10
2023-04-28T03:03:33.296Z,22.10
2023-04-28T03:06:01.861Z,22.00
2023-04-28T03:08:30.643Z,21.80
2023-04-28T03:10:59.203Z,21.70
2023-04-28T03:13:28.088Z,21.50
2023-04-28T03:15:57.010Z,21.50
2023-04-28T03:18:25.521Z,21.40
2023-04-28T03:20:53.997Z,21.20
2023-04-28T03:23:22.458Z,21.10
2023-04-28T03:25:50.875Z,21.00
2023-04-28T03:28:19.302Z,20.90
2023-04-28T03:30:47.731Z,20.60
2023-04-28T03:33:16.209Z,20.50
2023-04-28T03:35:44.747Z,20.40
2023-04-28T03:38:13.140Z,20.30
2023-04-28T03:40:41.500Z,20.20
2023-04-28T03:43:09.911Z,20.10
2023-04-28T03:45:38.566Z,19.80
2023-04-28T03:48:07.945Z,19.70
2023-04-28T03:50:36.528Z,19.70
2023-04-28T03:53:05.897Z,19.60
2023-04-28T03:55:34.387Z,19.50
2023-04-28T03:58:02.907Z,19.40
2023-04-28T04:00:31.328Z,19.30
2023-04-28T04:02:59.873Z,19.10
2023-04-28T04:05:28.469Z,19.00
2023-04-28T04:07:57.090Z,18.90
2023-04-28T04:10:25.459Z,18.80
2023-04-28T04:12:53.958Z,18.70
2023-04-28T04:15:22.464Z,18.60
2023-04-28T04:17:50.944Z,18.50
2023-04-28T04:20:19.429Z,18.50
2023-04-28T04:22:47.825Z,18.50
2023-04-28T04:25:16.345Z,18.40
2023-04-28T04:27:44.829Z,18.50
2023-04-28T04:30:13.624Z,18.50
2023-04-28T04:32:42.076Z,18.40
2023-04-28T04:35:10.918Z,18.30
2023-04-28T04:37:39.402Z,18.20
2023-04-28T04:40:08.664Z,18.20
2023-04-28T04:42:37.160Z,18.10
2023-04-28T04:45:05.862Z,17.90
2023-04-28T04:47:34.418Z,17.90
2023-04-28T04:50:02.868Z,17.80
2023-04-28T04:52:31.321Z,17.60
2023-04-28T04:55:00.738Z,17.50
2023-04-28T04:57:29.316Z,17.50
2023-04-28T04:59:57.785Z,17.40
2023-04-28T05:02:26.346Z,17.40
2023-04-28T05:05:01.809Z,17.30
2023-04-28T05:07:37.601Z,17.20
2023-04-28T05:10:08.070Z,16.90
2023-04-28T05:12:36.665Z,16.90
2023-04-28T05:15:05.953Z,16.90
2023-04-28T05:17:34.874Z,16.90
2023-04-28T05:20:03.400Z,17.00
2023-04-28T05:22:32.220Z,17.00
2023-04-28T05:25:00.666Z,16.90
2023-04-28T05:27:29.076Z,16.80
2023-04-28T05:29:57.498Z,16.80
2023-04-28T05:32:25.994Z,16.60
2023-04-28T05:34:54.430Z,16.60
2023-04-28T05:37:22.841Z,16.50
2023-04-28T05:39:51.288Z,16.30
2023-04-28T05:42:19.726Z,16.30
2023-04-28T05:44:48.111Z,16.30
2023-04-28T05:47:16.535Z,16.30
2023-04-28T05:49:44.958Z,16.30
2023-04-28T05:52:13.330Z,16.20
2023-04-28T05:54:41.728Z,16.20
2023-04-28T05:57:10.270Z,16.10
2023-04-28T05:59:39.319Z,16.00
2023-04-28T06:02:08.397Z,16.00
2023-04-28T06:04:37.195Z,16.10
2023-04-28T06:07:05.921Z,16.00
2023-04-28T06:09:34.366Z,15.90
2023-04-28T06:12:02.820Z,15.80
2023-04-28T06:14:31.260Z,15.80
2023-04-28T06:16:59.707Z,15.60
2023-04-28T06:19:28.160Z,15.60
2023-04-28T06:21:56.538Z,15.70
2023-04-28T06:24:24.958Z,15.60
2023-04-28T06:26:53.389Z,15.60
2023-04-28T06:29:24.081Z,15.40
2023-04-28T06:31:53.306Z,15.40
2023-04-28T06:34:21.845Z,15.20
2023-04-28T06:36:50.256Z,15.20
2023-04-28T06:39:18.657Z,15.20
2023-04-28T06:41:48.001Z,15.20
2023-04-28T06:44:16.775Z,15.20
2023-04-28T06:46:45.382Z,15.20
2023-04-28T06:49:13.779Z,15.10
2023-04-28T06:51:42.203Z,15.10
2023-04-28T06:54:10.846Z,15.00
2023-04-28T06:56:39.322Z,15.00
2023-04-28T06:59:08.056Z,14.90
2023-04-28T07:01:36.478Z,14.80
2023-04-28T07:04:05.039Z,14.80
2023-04-28T07:06:33.936Z,14.70
2023-04-28T07:09:02.334Z,14.70
2023-04-28T07:11:30.729Z,14.60
2023-04-28T07:13:59.109Z,14.60
2023-04-28T07:16:27.659Z,14.50
2023-04-28T07:18:56.509Z,14.30
2023-04-28T07:21:24.961Z,14.30
2023-04-28T07:23:53.371Z,14.30
2023-04-28T07:26:22.345Z,14.30
2023-04-28T07:28:50.790Z,14.20
2023-04-28T07:31:19.562Z,14.20
2023-04-28T07:33:47.974Z,14.20
2023-04-28T07:36:17.073Z,14.10
2023-04-28T07:38:45.656Z,14.00
2023-04-28T07:41:14.597Z,13.90
2023-04-28T07:43:42.985Z,14.00
2023-04-28T07:46:14.105Z,13.90
2023-04-28T07:48:42.631Z,13.80
2023-04-28T07:51:11.035Z,13.70
2023-04-28T07:53:39.439Z,13.70
2023-04-28T07:56:08.183Z,13.70
2023-04-28T07:58:37.246Z,13.50
2023-04-28T08:01:05.850Z,13.50
2023-04-28T08:03:34.466Z,13.50
2023-04-28T08:06:03.514Z,13.30
2023-04-28T08:08:33.193Z,13.10
2023-04-28T08:11:01.729Z,13.20
2023-04-28T08:13:30.308Z,13.10
2023-04-28T08:15:58.962Z,13.00
2023-04-28T08:18:28.165Z,12.90
2023-04-28T08:20:56.634Z,12.90
2023-04-28T08:23:29.081Z,12.80
2023-04-28T08:25:57.493Z,12.70
2023-04-28T08:28:25.986Z,12.70
2023-04-28T08:30:56.286Z,12.60
2023-04-28T08:33:25.545Z,12.50
2023-04-28T08:35:54.006Z,12.50
2023-04-28T08:38:24.892Z,12.50
2023-04-28T08:40:53.489Z,12.40
2023-04-28T08:43:22.412Z,12.40
2023-04-28T08:45:50.887Z,12.20
2023-04-28T08:48:23.861Z,12.10
2023-04-28T08:50:55.801Z,12.10
2023-04-28T08:53:28.966Z,12.00
2023-04-28T08:55:59.051Z,12.00
2023-04-28T08:58:28.545Z,12.00
2023-04-28T09:00:56.966Z,12.10
2023-04-28T09:03:25.616Z,11.90
2023-04-28T09:05:54.349Z,12.00
2023-04-28T09:08:22.754Z,11.80
2023-04-28T09:11:11.162Z,11.80
2023-04-28T09:13:40.854Z,11.80
2023-04-28T09:16:09.805Z,11.80
2023-04-28T09:18:38.265Z,11.70
2023-04-28T09:21:08.673Z,11.70
2023-04-28T09:23:52.109Z,11.70
2023-04-28T09:26:20.491Z,11.80
2023-04-28T09:28:49.261Z,11.80
2023-04-28T09:31:29.985Z,11.70
2023-04-28T09:33:59.648Z,11.70
2023-04-28T09:36:32.547Z,11.60
2023-04-28T09:39:01.610Z,11.60
2023-04-28T09:41:42.886Z,11.70
2023-04-28T09:44:25.207Z,11.70
2023-04-28T09:46:53.616Z,11.70
2023-04-28T09:49:22.004Z,11.60
2023-04-28T09:51:51.195Z,11.50
2023-04-28T09:54:23.349Z,11.40
2023-04-28T09:56:52.695Z,11.40
2023-04-28T09:59:22.434Z,11.50
2023-04-28T10:01:51.529Z,11.50
2023-04-28T10:04:21.233Z,11.50
2023-04-28T10:06:49.887Z,11.40
2023-04-28T10:09:18.953Z,11.30
2023-04-28T10:11:48.110Z,11.40
2023-04-28T10:14:16.733Z,11.40
2023-04-28T10:16:46.042Z,11.40
2023-04-28T10:19:14.639Z,11.30
2023-04-28T10:21:53.401Z,11.30
2023-04-28T10:24:31.160Z,11.20
2023-04-28T10:27:12.077Z,11.20
2023-04-28T10:29:40.797Z,11.10
2023-04-28T10:32:19.681Z,11.20
2023-04-28T10:34:49.113Z,11.30
2023-04-28T10:37:19.908Z,11.30
2023-04-28T10:40:30.574Z,11.50
2023-04-28T10:42:58.978Z,11.70
2023-04-28T10:45:56.795Z,11.90
2023-04-28T10:48:35.417Z,12.10
2023-04-28T10:51:06.597Z,12.10
2023-04-28T10:53:45.272Z,12.20
2023-04-28T10:56:26.443Z,12.10
2023-04-28T10:58:59.141Z,12.00
2023-04-28T11:01:32.836Z,12.00
2023-04-28T11:04:14.317Z,11.80
2023-04-28T11:06:44.752Z,11.80
2023-04-28T11:09:16.020Z,11.70
2023-04-28T11:12:07.687Z,11.80
2023-04-28T11:14:37.673Z,11.60
2023-04-28T11:17:14.011Z,11.70
2023-04-28T11:19:44.788Z,11.60
2023-04-28T11:22:17.433Z,11.60
2023-04-28T11:24:59.728Z,11.60
2023-04-28T11:27:29.592Z,11.60
2023-04-28T11:29:58.298Z,11.50
2023-04-28T11:32:41.073Z,11.30
2023-04-28T11:35:10.469Z,11.30
2023-04-28T11:37:39.833Z,11.30
2023-04-28T11:40:15.303Z,11.30
2023-04-28T11:42:50.278Z,11.20
2023-04-28T11:45:18.848Z,11.30
2023-04-28T11:47:47.705Z,11.10
2023-04-28T11:50:16.894Z,11.10
2023-04-28T11:52:53.769Z,11.10
2023-04-28T11:55:22.584Z,11.00
2023-04-28T11:57:50.974Z,11.00
2023-04-28T12:00:22.699Z,11.00
2023-04-28T12:02:51.804Z,11.00
2023-04-28T12:05:22.980Z,10.90
2023-04-28T12:07:51.907Z,10.90
2023-04-28T12:10:20.849Z,11.00
2023-04-28T12:12:52.620Z,11.00
2023-04-28T12:15:23.090Z,10.90
2023-04-28T12:17:52.053Z,10.90
2023-04-28T12:20:38.334Z,11.00
2023-04-28T12:23:08.818Z,10.90
2023-04-28T12:25:45.802Z,10.80
2023-04-28T12:28:14.282Z,10.80
2023-04-28T12:30:42.909Z,10.80
2023-04-28T12:33:28.439Z,10.70
2023-04-28T12:35:58.855Z,10.70
2023-04-28T12:38:29.151Z,10.70
2023-04-28T12:40:57.954Z,10.70
2023-04-28T12:43:27.943Z,10.70
2023-04-28T12:45:57.598Z,10.80
2023-04-28T12:48:26.163Z,10.70
2023-04-28T12:50:54.546Z,10.70
2023-04-28T12:53:22.963Z,10.70
2023-04-28T12:55:51.424Z,10.60
2023-04-28T12:58:19.963Z,10.60
2023-04-28T13:00:48.538Z,10.70
2023-04-28T13:03:17.002Z,10.60
2023-04-28T13:05:45.990Z,10.60
2023-04-28T13:08:14.809Z,10.60
2023-04-28T13:10:43.630Z,10.60
2023-04-28T13:13:12.509Z,10.50
2023-04-28T13:15:41.034Z,10.60
2023-04-28T13:18:09.494Z,11.10
2023-04-28T13:20:38.045Z,10.90
2023-04-28T13:23:06.872Z,10.90
2023-04-28T13:25:35.266Z,11.10
2023-04-28T13:28:03.778Z,11.00
2023-04-28T13:30:32.464Z,11.10
2023-04-28T13:33:00.868Z,11.20
2023-04-28T13:35:29.294Z,11.20
2023-04-28T13:38:02.601Z,11.30
2023-04-28T13:40:31.512Z,11.40
2023-04-28T13:42:59.902Z,11.50
2023-04-28T13:45:29.478Z,11.50
2023-04-28T13:47:58.130Z,11.40
2023-04-28T13:50:26.655Z,11.60
2023-04-28T13:52:55.142Z,11.70
2023-04-28T13:55:29.146Z,11.80
2023-04-28T13:57:58.041Z,11.90
2023-04-28T14:00:26.491Z,12.00
2023-04-28T14:02:55.157Z,12.20
2023-04-28T14:05:24.260Z,12.30
2023-04-28T14:07:54.658Z,12.40
2023-04-28T14:10:23.795Z,12.60
2023-04-28T14:12:52.198Z,13.10
2023-04-28T14:15:20.650Z,14.00
2023-04-28T14:17:50.081Z,14.40
2023-04-28T14:20:18.681Z,15.00
2023-04-28T14:22:47.059Z,15.30
2023-04-28T14:25:15.630Z,15.50
2023-04-28T14:27:44.097Z,15.50
2023-04-28T14:30:12.862Z,15.50
2023-04-28T14:32:41.401Z,16.00
2023-04-28T14:35:10.861Z,16.20
2023-04-28T14:37:39.741Z,16.50
2023-04-28T14:40:08.874Z,16.80
2023-04-28T14:42:38.089Z,17.00
2023-04-28T14:45:11.574Z,16.60
2023-04-28T14:47:41.258Z,16.80
2023-04-28T14:50:11.463Z,16.70
2023-04-28T14:52:41.968Z,17.40
2023-04-28T14:55:10.729Z,17.60
2023-04-28T14:57:39.174Z,18.10
2023-04-28T15:00:08.824Z,18.50
2023-04-28T15:02:38.078Z,18.60
2023-04-28T15:05:07.464Z,19.30
2023-04-28T15:07:35.889Z,19.50
2023-04-28T15:10:04.463Z,19.50
2023-04-28T15:12:33.607Z,19.60
2023-04-28T15:15:02.024Z,21.00
2023-04-28T15:17:30.452Z,21.90
2023-04-28T15:19:59.007Z,23.10
2023-04-28T15:22:27.781Z,24.20
2023-04-28T15:24:56.802Z,25.10
2023-04-28T15:27:25.262Z,25.90
2023-04-28T15:29:53.615Z,27.00
2023-04-28T15:32:22.362Z,27.80
2023-04-28T15:34:51.063Z,28.80
2023-04-28T15:37:42.405Z,29.20
2023-04-28T15:40:13.617Z,30.10
2023-04-28T15:43:00.132Z,31.00
2023-04-28T15:45:28.674Z,32.70
2023-04-28T15:47:57.244Z,33.40
2023-04-28T15:50:26.257Z,33.30
2023-04-28T15:52:54.883Z,34.90
2023-04-28T15:55:24.814Z,35.20
2023-04-28T15:57:53.640Z,34.20
2023-04-28T16:00:22.127Z,34.20
2023-04-28T16:02:50.875Z,35.70
2023-04-28T16:05:19.760Z,36.00
2023-04-28T16:07:48.347Z,36.80
2023-04-28T16:10:17.543Z,37.60
2023-04-28T16:12:46.064Z,37.30
2023-04-28T16:15:14.842Z,37.20
2023-04-28T16:17:45.052Z,37.00
2023-04-28T16:20:13.601Z,35.90
2023-04-28T16:22:42.681Z,36.20
2023-04-28T16:25:11.876Z,36.50
2023-04-28T16:27:41.552Z,34.50
2023-04-28T16:30:10.841Z,34.90
2023-04-28T16:32:39.282Z,34.80
2023-04-28T16:35:14.903Z,35.60
2023-04-28T16:37:44.335Z,36.10
2023-04-28T16:40:14.424Z,36.50
2023-04-28T16:42:44.237Z,35.30
2023-04-28T16:45:14.064Z,34.70
2023-04-28T16:47:44.167Z,33.90
2023-04-28T16:50:15.414Z,33.80
2023-04-28T16:52:43.848Z,33.90
2023-04-28T16:55:12.489Z,35.30
2023-04-28T16:57:41.009Z,35.80
2023-04-28T17:00:10.132Z,35.50
2023-04-28T17:02:39.108Z,35.30
2023-04-28T17:05:08.141Z,35.20
2023-04-28T17:07:37.317Z,34.70
2023-04-28T17:10:06.252Z,33.10
2023-04-28T17:12:34.637Z,32.40
2023-04-28T17:15:03.140Z,30.70
2023-04-28T17:17:31.563Z,30.00
2023-04-28T17:20:03.095Z,31.10
2023-04-28T17:22:32.792Z,31.00
2023-04-28T17:25:01.259Z,31.70
2023-04-28T17:27:29.750Z,32.10
2023-04-28T17:29:58.159Z,32.00
2023-04-28T17:32:26.590Z,32.10
2023-04-28T17:34:55.030Z,31.80
2023-04-28T17:37:23.830Z,32.00
2023-04-28T17:39:52.870Z,29.80
2023-04-28T17:42:21.577Z,30.10
2023-04-28T17:44:50.207Z,28.80
2023-04-28T17:47:18.756Z,29.70
2023-04-28T17:49:47.170Z,29.80
2023-04-28T17:52:16.280Z,30.50
2023-04-28T17:54:44.731Z,31.30
2023-04-28T17:57:13.938Z,31.10
2023-04-28T17:59:43.448Z,30.40
2023-04-28T18:02:12.626Z,28.20
2023-04-28T18:04:41.282Z,28.60
2023-04-28T18:07:09.834Z,28.20
2023-04-28T18:09:38.327Z,27.70
2023-04-28T18:12:07.794Z,28.50
2023-04-28T18:14:36.229Z,28.30
2023-04-28T18:17:04.619Z,28.40
2023-04-28T18:19:33.188Z,28.10
2023-04-28T18:22:01.745Z,28.60
2023-04-28T18:24:30.133Z,29.90
2023-04-28T18:26:58.568Z,30.50
2023-04-28T18:29:27.326Z,29.10
2023-04-28T18:31:56.705Z,28.80
2023-04-28T18:34:25.319Z,28.20
2023-04-28T18:36:53.803Z,27.60
2023-04-28T18:39:22.315Z,27.20
2023-04-28T18:41:50.702Z,27.90
2023-04-28T18:44:19.923Z,28.20
2023-04-28T18:46:48.314Z,29.00
2023-04-28T18:49:16.818Z,28.30
2023-04-28T18:51:45.240Z,29.20
2023-04-28T18:54:16.650Z,29.40
2023-04-28T18:56:45.469Z,29.20
2023-04-28T18:59:14.442Z,30.00
2023-04-28T19:01:42.983Z,30.50
2023-04-28T19:04:11.652Z,30.10
2023-04-28T19:06:40.472Z,30.70
2023-04-28T19:09:08.842Z,29.50
2023-04-28T19:11:37.223Z,29.70
2023-04-28T19:14:06.126Z,29.50
2023-04-28T19:16:34.610Z,29.60
2023-04-28T19:19:03.079Z,29.70
2023-04-28T19:21:31.444Z,28.80
2023-04-28T19:23:59.875Z,28.80
2023-04-28T19:26:28.325Z,29.50
2023-04-28T19:28:56.689Z,29.30
2023-04-28T19:31:25.160Z,29.40
2023-04-28T19:33:53.881Z,29.10
2023-04-28T19:36:23.223Z,29.40
2023-04-28T19:38:51.997Z,29.00
2023-04-28T19:41:21.744Z,29.00
2023-04-28T19:43:50.113Z,29.00
2023-04-28T19:46:18.885Z,29.40
2023-04-28T19:48:47.511Z,29.30
2023-04-28T19:51:15.966Z,29.20
2023-04-28T19:53:47.178Z,29.20
2023-04-28T19:56:15.554Z,28.40
2023-04-28T19:58:43.994Z,28.00
2023-04-28T20:01:12.479Z,27.90
2023-04-28T20:03:41.030Z,28.20
2023-04-28T20:06:10.848Z,28.10
2023-04-28T20:08:39.303Z,28.30
2023-04-28T20:11:08.476Z,28.30
2023-04-28T20:13:37.014Z,28.00
2023-04-28T20:16:07.818Z,27.90
2023-04-28T20:18:38.145Z,27.90
2023-04-28T20:21:06.556Z,28.00
2023-04-28T20:23:35.041Z,27.90
2023-04-28T20:26:03.463Z,28.20
2023-04-28T20:28:31.910Z,28.30
2023-04-28T20:31:00.391Z,28.40
2023-04-28T20:33:28.777Z,28.10
2023-04-28T20:35:57.170Z,28.00
2023-04-28T20:38:25.619Z,27.80
2023-04-28T20:40:54.038Z,28.10
2023-04-28T20:43:24.855Z,28.00
2023-04-28T20:45:53.239Z,28.20
2023-04-28T20:48:22.179Z,28.20
2023-04-28T20:50:53.809Z,28.20
2023-04-28T20:53:23.067Z,28.00
2023-04-28T20:55:51.914Z,28.10
2023-04-28T20:58:20.308Z,28.40
2023-04-28T21:00:48.710Z,28.20
2023-04-28T21:03:17.420Z,28.30
2023-04-28T21:05:47.350Z,28.10
2023-04-28T21:08:15.797Z,28.20
2023-04-28T21:10:44.273Z,28.30
2023-04-28T21:13:13.852Z,28.30
2023-04-28T21:15:42.430Z,28.40
2023-04-28T21:18:10.923Z,28.30
2023-04-28T21:20:39.484Z,28.40
2023-04-28T21:23:08.415Z,28.40
2023-04-28T21:25:37.601Z,28.40
2023-04-28T21:28:06.193Z,28.50
2023-04-28T21:30:34.576Z,28.50
2023-04-28T21:33:03.172Z,28.80
2023-04-28T21:35:31.624Z,28.60
2023-04-28T21:38:00.031Z,28.70
2023-04-28T21:40:28.441Z,28.50
2023-04-28T21:42:57.284Z,28.70
2023-04-28T21:45:25.669Z,28.50
2023-04-28T21:47:54.169Z,28.60
2023-04-28T21:50:22.882Z,28.60
2023-04-28T21:52:51.307Z,28.70
2023-04-28T21:55:19.931Z,28.70
2023-04-28T21:57:48.326Z,28.70
2023-04-28T22:00:17.480Z,28.70
2023-04-28T22:02:46.213Z,28.70
2023-04-28T22:05:14.661Z,28.70
2023-04-28T22:07:43.408Z,28.90
2023-04-28T22:10:13.026Z,29.00
2023-04-28T22:12:41.459Z,28.80
2023-04-28T22:15:10.228Z,28.80
2023-04-28T22:17:38.621Z,28.80
2023-04-28T22:20:07.793Z,29.00
2023-04-28T22:22:36.320Z,28.90
2023-04-28T22:25:04.854Z,29.20
2023-04-28T22:27:34.038Z,29.20
2023-04-28T22:30:02.518Z,29.10
2023-04-28T22:32:30.911Z,29.00
2023-04-28T22:34:59.473Z,29.00
2023-04-28T22:37:28.134Z,29.00
2023-04-28T22:39:56.593Z,29.20
2023-04-28T22:42:25.208Z,29.20
2023-04-28T22:44:53.607Z,29.20
2023-04-28T22:47:21.992Z,29.20
2023-04-28T22:49:50.662Z,29.10
2023-04-28T22:52:21.256Z,29.20
2023-04-28T22:54:49.887Z,29.30
2023-04-28T22:57:18.294Z,29.00
2023-04-28T22:59:46.687Z,29.00
2023-04-28T23:02:15.135Z,29.00
2023-04-28T23:04:43.767Z,29.10
2023-04-28T23:07:12.635Z,29.10
2023-04-28T23:09:41.037Z,29.20
2023-04-28T23:12:09.661Z,29.10
2023-04-28T23:14:38.125Z,29.20
2023-04-28T23:17:06.680Z,29.30
2023-04-28T23:19:39.885Z,29.20
2023-04-28T23:22:08.981Z,29.10
2023-04-28T23:24:38.806Z,29.30
2023-04-28T23:27:07.649Z,29.10
2023-04-28T23:29:36.773Z,29.10
2023-04-28T23:32:05.727Z,29.10
2023-04-28T23:34:34.339Z,29.00
2023-04-28T23:37:03.303Z,29.00
2023-04-28T23:39:32.426Z,29.10
2023-04-28T23:42:00.948Z,29.00
2023-04-28T23:44:29.329Z,29.10
2023-04-28T23:46:57.754Z,29.20
2023-04-28T23:49:26.151Z,29.30
2023-04-28T23:51:54.622Z,29.30
2023-04-28T23:54:22.993Z,29.20
2023-04-28T23:56:51.390Z,29.20
2023-04-28T23:59:19.757Z,29.30
